Time;durP1;ratioP1;P1;durP2;ratioP2;P2;SDS_P1;SDS_P2;PMS_P1;PMS_P2;Temp;Humidity;BMP_temperature;BMP_pressure;BME280_temperature;BME280_humidity;BME280_pressure;Samples;Min_cycle;Max_cycle;Signal;HPM_P1;HPM_P2
2022/06/06 00:00:54;;;;;;;9.07;6.40;;;;;;;;;;5011763;28;20648;-86
2022/06/06 00:05:45;;;;;;;11.65;6.70;;;;;;;;;;4975471;28;20050;-86
2022/06/06 00:10:29;;;;;;;10.48;6.15;;;;;;;;;;4938434;28;20127;-87
2022/06/06 00:15:20;;;;;;;9.70;6.57;;;;;;;;;;4888150;29;20562;-86
2022/06/06 00:20:06;;;;;;;12.25;6.45;;;;;;;;;;4887476;29;20103;-87
2022/06/06 01:16:46;;;;;;;12.65;8.25;;;;;;;;;;5034772;28;20044;-90
2022/06/06 01:21:30;;;;;;;13.75;7.85;;;;;;;;;;4990372;28;20053;-86
2022/06/06 01:26:27;;;;;;;14.02;8.05;;;;;;;;;;4957823;28;20039;-86
2022/06/06 01:31:29;;;;;;;13.43;8.30;;;;;;;;;;4885991;29;20502;-86
2022/06/06 01:50:22;;;;;;;12.77;8.77;;;;;;;;;;4841657;29;20133;-87
2022/06/06 07:44:14;;;;;;;14.05;7.80;;;;;;;;;;5054335;28;20040;-87
2022/06/06 07:47:20;;;;;;;14.27;7.68;;;;;;;;;;5054576;28;20045;-87
2022/06/06 07:51:50;;;;;;;16.42;8.15;;;;;;;;;;5033840;28;20133;-85
2022/06/06 07:56:21;;;;;;;13.63;7.35;;;;;;;;;;5033116;28;20081;-86
2022/06/06 08:00:38;;;;;;;14.77;7.55;;;;;;;;;;4976195;28;20054;-87
2022/06/06 08:04:03;;;;;;;16.23;8.20;;;;;;;;;;4978018;28;20323;-86
2022/06/06 08:07:53;;;;;;;17.20;8.32;;;;;;;;;;4956433;28;20144;-85
2022/06/06 08:11:21;;;;;;;12.65;6.75;;;;;;;;;;4972408;28;20074;-85
2022/06/06 08:15:07;;;;;;;16.13;7.97;;;;;;;;;;4951556;28;20052;-84
2022/06/06 08:18:45;;;;;;;16.10;7.45;;;;;;;;;;4976171;28;20058;-85
2022/06/06 08:21:43;;;;;;;17.20;8.40;;;;;;;;;;4980688;28;20053;-87
2022/06/06 08:24:34;;;;;;;14.97;7.30;;;;;;;;;;4981776;28;20092;-87
2022/06/06 08:27:17;;;;;;;13.00;6.82;;;;;;;;;;4991063;28;20172;-86
2022/06/06 08:30:08;;;;;;;13.38;7.75;;;;;;;;;;5000526;28;20058;-86
2022/06/06 08:32:50;;;;;;;15.88;7.13;;;;;;;;;;4990837;28;20124;-86
2022/06/06 08:37:13;;;;;;;11.05;5.93;;;;;;;;;;4972367;28;20055;-85
2022/06/06 08:41:25;;;;;;;10.63;5.35;;;;;;;;;;4942634;28;20605;-85
2022/06/06 08:46:01;;;;;;;9.73;6.05;;;;;;;;;;4950174;28;20556;-85
2022/06/06 08:53:55;;;;;;;7.88;4.13;;;;;;;;;;4923133;29;20154;-85
2022/06/06 08:57:55;;;;;;;14.45;5.20;;;;;;;;;;4893951;29;20061;-86
2022/06/06 09:02:19;;;;;;;9.07;5.45;;;;;;;;;;4902659;29;20044;-85
2022/06/06 09:05:56;;;;;;;8.18;4.40;;;;;;;;;;4904329;29;20094;-85
2022/06/06 09:14:40;;;;;;;8.02;4.38;;;;;;;;;;4857093;29;20075;-86
2022/06/06 09:19:07;;;;;;;9.35;4.80;;;;;;;;;;4810052;29;20055;-86
2022/06/06 09:24:03;;;;;;;6.88;3.80;;;;;;;;;;4842774;29;20088;-85
2022/06/06 09:28:36;;;;;;;7.38;3.72;;;;;;;;;;4850940;29;20099;-86
2022/06/06 09:33:14;;;;;;;7.07;3.78;;;;;;;;;;4866119;29;20044;-86
2022/06/06 09:42:29;;;;;;;8.05;4.10;;;;;;;;;;4865551;29;20292;-85
2022/06/06 09:47:09;;;;;;;8.27;4.35;;;;;;;;;;4884993;29;20051;-85
2022/06/06 10:01:12;;;;;;;7.40;4.35;;;;;;;;;;4851228;29;20527;-86
2022/06/06 10:05:56;;;;;;;7.07;4.20;;;;;;;;;;4858631;29;20051;-85
2022/06/06 10:15:00;;;;;;;7.47;4.03;;;;;;;;;;4821400;29;20059;-85
2022/06/06 10:19:41;;;;;;;11.07;4.60;;;;;;;;;;4785085;29;20094;-86
2022/06/06 10:24:02;;;;;;;8.95;4.35;;;;;;;;;;4776162;29;20055;-84
2022/06/06 10:27:22;;;;;;;7.55;4.20;;;;;;;;;;4777310;29;20152;-86
2022/06/06 10:30:53;;;;;;;7.72;4.63;;;;;;;;;;4812664;29;20076;-84
2022/06/06 10:34:20;;;;;;;11.98;4.80;;;;;;;;;;4839575;29;20065;-85
2022/06/06 10:47:18;;;;;;;8.30;4.30;;;;;;;;;;4943825;28;20405;-85
2022/06/06 10:51:47;;;;;;;9.10;5.25;;;;;;;;;;4946155;28;20075;-85
2022/06/06 11:27:47;;;;;;;8.73;3.58;;;;;;;;;;4905338;28;20048;-87
2022/06/06 11:31:44;;;;;;;5.63;3.65;;;;;;;;;;4964062;28;20119;-86
2022/06/06 11:35:13;;;;;;;6.43;4.18;;;;;;;;;;4966408;28;20062;-85
2022/06/06 11:38:41;;;;;;;8.95;4.28;;;;;;;;;;4952892;28;20524;-84
2022/06/06 11:42:24;;;;;;;7.22;3.65;;;;;;;;;;4979438;28;20050;-84
2022/06/06 11:45:20;;;;;;;6.63;4.00;;;;;;;;;;4979207;28;20124;-83
2022/06/06 11:48:54;;;;;;;6.60;4.13;;;;;;;;;;4996835;28;20053;-84
2022/06/06 11:52:15;;;;;;;8.23;4.22;;;;;;;;;;5016030;28;20131;-84
2022/06/06 11:55:49;;;;;;;7.22;4.60;;;;;;;;;;4942975;28;20059;-85
2022/06/06 11:59:19;;;;;;;7.05;4.60;;;;;;;;;;4957094;28;20257;-84
2022/06/06 12:02:45;;;;;;;10.02;5.07;;;;;;;;;;4885971;29;20080;-84
2022/06/06 12:06:03;;;;;;;7.85;4.35;;;;;;;;;;4887341;29;20209;-85
2022/06/06 12:09:31;;;;;;;8.40;4.15;;;;;;;;;;4888172;29;20062;-85
2022/06/06 12:14:07;;;;;;;7.40;4.28;;;;;;;;;;4867398;29;20515;-85
2022/06/06 12:18:01;;;;;;;8.55;4.70;;;;;;;;;;4849081;29;20057;-84
2022/06/06 12:21:21;;;;;;;6.32;4.13;;;;;;;;;;4847153;29;20053;-85
2022/06/06 12:25:11;;;;;;;6.57;3.85;;;;;;;;;;4851098;29;20104;-85
2022/06/06 12:28:27;;;;;;;5.55;2.50;;;;;;;;;;4925121;29;20063;-84
2022/06/06 12:31:47;;;;;;;3.90;2.03;;;;;;;;;;4921785;29;20055;-85
2022/06/06 12:35:34;;;;;;;4.68;2.00;;;;;;;;;;4924458;29;20062;-84
2022/06/06 12:39:05;;;;;;;3.95;2.30;;;;;;;;;;4890056;29;20119;-84
2022/06/06 12:42:08;;;;;;;3.75;2.30;;;;;;;;;;4902674;29;20064;-84
2022/06/06 12:45:03;;;;;;;3.88;2.40;;;;;;;;;;4924001;29;20142;-83
2022/06/06 12:48:03;;;;;;;4.43;1.77;;;;;;;;;;4981653;28;20069;-83
2022/06/06 12:51:12;;;;;;;5.03;2.35;;;;;;;;;;5006406;28;20053;-84
2022/06/06 13:22:47;;;;;;;3.10;1.90;;;;;;;;;;5970748;22;7215550;-86
2022/06/06 13:25:57;;;;;;;4.15;2.00;;;;;;;;;;6286314;22;20254;-85
2022/06/06 13:29:42;;;;;;;3.42;1.88;;;;;;;;;;6212877;23;20021;-87
2022/06/06 13:33:47;;;;;;;3.50;1.77;;;;;;;;;;6111200;23;20021;-87
2022/06/06 16:51:09;;;;;;;1.45;0.63;;;;;;;;;;5916308;24;20029;-85
2022/06/06 17:05:14;;;;;;;1.63;0.70;;;;;;;;;;5990372;23;20098;-85
2022/06/06 17:24:20;;;;;;;1.55;0.90;;;;;;;;;;5819278;24;20443;-89
2022/06/06 17:28:46;;;;;;;1.95;0.80;;;;;;;;;;5833812;24;20314;-86
2022/06/06 18:39:06;;;;;;;1.98;0.80;;;;;;;;;;6298923;22;20015;-84
2022/06/06 18:41:41;;;;;;;2.40;1.00;;;;;;;;;;6309375;22;20045;-83
2022/06/06 18:44:26;;;;;;;1.90;0.80;;;;;;;;;;6283699;22;20094;-83
2022/06/06 18:47:34;;;;;;;2.47;0.95;;;;;;;;;;6308369;22;20023;-83
2022/06/06 18:50:38;;;;;;;3.40;0.80;;;;;;;;;;6282780;22;20049;-83
2022/06/06 18:53:20;;;;;;;2.22;1.05;;;;;;;;;;6271732;22;20034;-83
2022/06/06 18:55:52;;;;;;;2.60;0.90;;;;;;;;;;6310001;22;20019;-83
2022/06/06 18:58:47;;;;;;;;;;;;;;;;;;6310868;22;20014;-83
2022/06/06 19:01:24;;;;;;;1.55;0.90;;;;;;;;;;6284822;22;19969;-84
2022/06/06 19:05:54;;;;;;;2.50;0.85;;;;;;;;;;6125191;23;20478;-86
2022/06/06 19:09:26;;;;;;;2.25;0.82;;;;;;;;;;6085649;23;20030;-83
2022/06/06 19:12:18;;;;;;;2.38;0.93;;;;;;;;;;6095859;23;20190;-85
2022/06/06 19:15:21;;;;;;;2.95;0.93;;;;;;;;;;6089740;23;20034;-85
2022/06/06 19:19:00;;;;;;;1.77;0.70;;;;;;;;;;6085319;23;20033;-85
2022/06/06 19:22:21;;;;;;;1.05;0.70;;;;;;;;;;6094907;23;20030;-85
2022/06/06 19:25:04;;;;;;;2.80;1.10;;;;;;;;;;6094494;23;20085;-85
2022/06/06 19:27:35;;;;;;;1.83;0.85;;;;;;;;;;6095060;23;20041;-86
2022/06/06 19:30:16;;;;;;;2.38;1.17;;;;;;;;;;6094937;23;20034;-86
2022/06/06 19:32:49;;;;;;;1.10;0.70;;;;;;;;;;6093777;23;20022;-85
2022/06/06 19:35:23;;;;;;;2.67;0.85;;;;;;;;;;6140438;23;20091;-85
2022/06/06 19:37:51;;;;;;;2.45;1.02;;;;;;;;;;6149640;23;20289;-86
2022/06/06 19:40:43;;;;;;;1.90;1.00;;;;;;;;;;6210801;23;20052;-87
2022/06/06 19:44:29;;;;;;;2.42;1.02;;;;;;;;;;6205001;23;20504;-86
2022/06/06 19:47:16;;;;;;;1.67;0.80;;;;;;;;;;6200575;23;20055;-87
2022/06/06 19:50:27;;;;;;;2.03;1.10;;;;;;;;;;6248784;22;20034;-87
2022/06/06 20:08:17;;;;;;;2.70;1.10;;;;;;;;;;6325480;22;20064;-88
2022/06/06 20:13:11;;;;;;;2.70;1.30;;;;;;;;;;6207861;23;20139;-88
2022/06/06 20:22:18;;;;;;;3.45;1.15;;;;;;;;;;6093313;23;20043;-88
2022/06/06 20:24:57;;;;;;;1.42;0.85;;;;;;;;;;6089330;23;20049;-85
2022/06/06 20:28:19;;;;;;;2.47;1.10;;;;;;;;;;6113422;23;20029;-86
2022/06/06 20:33:04;;;;;;;2.15;1.25;;;;;;;;;;5967523;24;20073;-87
2022/06/06 20:37:37;;;;;;;2.72;1.17;;;;;;;;;;5887394;24;20032;-87
2022/06/06 20:41:58;;;;;;;1.95;0.95;;;;;;;;;;5761822;24;20762;-84
2022/06/06 20:44:48;;;;;;;2.47;1.08;;;;;;;;;;5790456;24;20031;-85
2022/06/06 20:47:42;;;;;;;2.17;1.15;;;;;;;;;;5817028;24;20195;-85
2022/06/06 20:51:21;;;;;;;2.95;1.10;;;;;;;;;;5851264;24;20033;-87
2022/06/06 20:54:50;;;;;;;1.58;1.08;;;;;;;;;;5838883;24;20101;-86
2022/06/06 20:59:01;;;;;;;4.07;1.15;;;;;;;;;;5846755;24;20038;-86
2022/06/06 21:02:09;;;;;;;1.92;1.00;;;;;;;;;;5875774;24;20039;-85
2022/06/06 21:04:55;;;;;;;1.58;0.98;;;;;;;;;;5924664;24;20033;-86
2022/06/06 21:08:21;;;;;;;3.30;1.15;;;;;;;;;;5922650;24;20032;-86
2022/06/06 21:10:54;;;;;;;3.05;1.00;;;;;;;;;;6017068;23;20764;-85
2022/06/06 21:13:43;;;;;;;1.98;1.00;;;;;;;;;;5997894;23;20475;-84
2022/06/06 21:16:17;;;;;;;2.45;1.08;;;;;;;;;;6103321;23;20032;-84
2022/06/06 21:18:52;;;;;;;4.25;1.00;;;;;;;;;;6178432;23;20028;-86
2022/06/06 21:21:49;;;;;;;2.20;1.10;;;;;;;;;;6214782;23;20028;-85
2022/06/06 21:24:27;;;;;;;2.20;0.95;;;;;;;;;;6190308;23;20016;-86
2022/06/06 21:27:19;;;;;;;2.53;1.17;;;;;;;;;;6179251;23;20119;-86
2022/06/06 21:30:22;;;;;;;2.50;1.10;;;;;;;;;;6162856;23;20067;-87
2022/06/06 21:34:33;;;;;;;1.85;1.25;;;;;;;;;;6236817;23;20035;-87
2022/06/06 21:39:30;;;;;;;1.30;0.90;;;;;;;;;;6109361;23;20030;-86
2022/06/06 21:44:05;;;;;;;2.78;1.00;;;;;;;;;;5972652;24;20466;-87
2022/06/06 21:46:53;;;;;;;1.67;1.00;;;;;;;;;;5973773;23;20032;-86
2022/06/06 21:50:26;;;;;;;1.80;0.93;;;;;;;;;;6015771;23;20036;-87
2022/06/06 21:54:45;;;;;;;3.17;1.10;;;;;;;;;;5935385;24;20032;-86
2022/06/06 21:57:37;;;;;;;3.05;1.10;;;;;;;;;;5920653;24;20043;-86
2022/06/06 22:00:55;;;;;;;1.80;1.10;;;;;;;;;;5948898;24;20020;-88
2022/06/06 22:09:33;;;;;;;3.15;1.10;;;;;;;;;;5963106;24;20027;-87
2022/06/06 22:22:40;;;;;;;2.05;1.00;;;;;;;;;;5899306;24;20521;-84
2022/06/06 22:25:38;;;;;;;2.38;1.20;;;;;;;;;;5979869;23;20035;-86
2022/06/06 22:28:26;;;;;;;2.53;1.00;;;;;;;;;;5994452;23;20037;-86
2022/06/06 22:31:16;;;;;;;2.88;1.10;;;;;;;;;;6075081;23;20029;-85
2022/06/06 22:33:50;;;;;;;1.50;1.00;;;;;;;;;;6079187;23;20060;-85
2022/06/06 22:36:38;;;;;;;1.55;0.93;;;;;;;;;;6137728;23;20115;-85
2022/06/06 22:39:50;;;;;;;2.05;0.95;;;;;;;;;;6187647;23;20136;-85
2022/06/06 22:42:44;;;;;;;1.48;0.95;;;;;;;;;;6217731;22;20076;-86
2022/06/06 22:45:28;;;;;;;1.73;1.00;;;;;;;;;;6297004;22;20024;-85
2022/06/06 22:48:22;;;;;;;3.20;0.95;;;;;;;;;;6307760;22;20037;-84
2022/06/06 22:58:41;;;;;;;1.27;0.80;;;;;;;;;;6086530;23;20073;-86
2022/06/06 23:01:54;;;;;;;1.20;0.80;;;;;;;;;;6055511;23;20050;-82
2022/06/06 23:04:21;;;;;;;1.90;0.82;;;;;;;;;;6034460;23;20035;-82
2022/06/06 23:06:54;;;;;;;2.35;1.20;;;;;;;;;;6067162;23;20034;-82
2022/06/06 23:09:21;;;;;;;2.80;1.20;;;;;;;;;;6067847;23;20037;-84
2022/06/06 23:11:49;;;;;;;1.90;1.10;;;;;;;;;;6035549;23;20042;-84
2022/06/06 23:14:17;;;;;;;3.22;1.08;;;;;;;;;;6046882;23;20075;-84
2022/06/06 23:16:45;;;;;;;6.55;3.80;;;;;;;;;;6043258;23;20083;-84
2022/06/06 23:19:15;;;;;;;7.30;3.70;;;;;;;;;;6070236;23;20471;-85
2022/06/06 23:21:43;;;;;;;6.80;3.97;;;;;;;;;;6069576;23;20023;-86
2022/06/06 23:24:11;;;;;;;7.55;3.33;;;;;;;;;;6069006;23;20077;-83
2022/06/06 23:26:39;;;;;;;4.53;2.55;;;;;;;;;;6045580;23;20037;-84
2022/06/06 23:32:49;;;;;;;3.35;1.63;;;;;;;;;;6186754;23;20025;-84
2022/06/06 23:35:31;;;;;;;4.57;2.10;;;;;;;;;;6237342;22;20033;-83
2022/06/06 23:38:18;;;;;;;3.67;1.58;;;;;;;;;;6251777;22;20486;-83
2022/06/06 23:40:47;;;;;;;2.58;1.30;;;;;;;;;;6302725;22;20015;-86
2022/06/06 23:43:24;;;;;;;1.92;1.02;;;;;;;;;;6311794;22;20022;-84
2022/06/06 23:49:11;;;;;;;1.58;0.80;;;;;;;;;;6186712;23;20540;-83
2022/06/06 23:51:53;;;;;;;1.73;1.00;;;;;;;;;;6163935;23;20051;-85
2022/06/06 23:54:43;;;;;;;1.80;1.08;;;;;;;;;;6163320;23;20013;-84
2022/06/06 23:58:09;;;;;;;2.05;1.05;;;;;;;;;;6155733;23;20532;-84
